Moonlight II — 9HFR8 — position and weather

sailwx.info

Track history (hours):
 
Tides and Currents Weather Stations Pressure Air Temp Water Temp Dewpoint Dewpoint Depression Visibility Wind Speed Wind Dir Waves Ship Positions

Moonlight II

Last reported at 2014-Sep-17 17:24 UTC. Time now 2014-Sep-18 01:45 UTC.
Position N 38°44' E 009°40'.

Length 82 m; draft 4.1 m.

Type: Ship. MMSI: 215934000.

Date/timePositionNaut miles runAvg speedWind from/ knotsBaromVisibWave heightAir tempDewpointWater temp
2014-Sep-17 17:24N 38°44' E 009°40'1011.8
2014-Sep-17 16:33N 38°47' E 009°28'1212.1
2014-Sep-17 15:33N 38°47' E 009°12'1111.6
2014-Sep-17 14:33N 38°47' E 008°58'2411.6
2014-Sep-17 12:31N 38°48' E 008°27'1611.7
2014-Sep-17 11:10N 38°48' E 008°07'711.7
2014-Sep-17 10:33N 38°48' E 007°58'6212.3
2014-Sep-17 05:33N 38°49' E 006°39'  
2014-Sep-13 11:03N 38°55' E 001°26'0 0.0
2014-Sep-13 06:27N 38°55' E 001°26'0 0.0
2014-Sep-13 05:09N 38°55' E 001°26'0 0.0
2014-Sep-13 04:03N 38°55' E 001°26'0 0.0
2014-Sep-13 02:33N 38°55' E 001°26'0 0.0
2014-Sep-13 01:03N 38°55' E 001°26'0 0.0
2014-Sep-13 00:21N 38°55' E 001°26'0 0.0
2014-Sep-12 21:21N 38°55' E 001°26'0 0.0
2014-Sep-12 20:27N 38°55' E 001°26'0 0.0
2014-Sep-12 19:33N 38°55' E 001°26'6 1.2
2014-Sep-12 14:33N 38°49' E 001°25'4 3.4
2014-Sep-12 13:24N 38°45' E 001°26'0 0.0
2014-Sep-12 12:30N 38°45' E 001°26'2 1.7
2014-Sep-12 11:33N 38°46' E 001°25'8 2.7
2014-Sep-12 08:29N 38°55' E 001°26'0 0.0
2014-Sep-12 06:22N 38°55' E 001°26'0 0.0
2014-Sep-12 00:28N 38°55' E 001°26'0 0.0
2014-Sep-11 23:29N 38°55' E 001°26'0 0.0
2014-Sep-11 22:33N 38°55' E 001°26'0 0.0
2014-Sep-11 21:32N 38°55' E 001°26'0 0.0
2014-Sep-11 20:30N 38°55' E 001°26'0 0.0
2014-Sep-11 19:27N 38°55' E 001°26'0 0.0
2014-Sep-11 18:30N 38°55' E 001°26'0 0.0
2014-Sep-11 17:31N 38°55' E 001°26'0 0.0
2014-Sep-11 14:12N 38°55' E 001°26'0 0.0
2014-Sep-11 11:06N 38°55' E 001°26'0 0.0
2014-Sep-11 10:26N 38°55' E 001°26'0 0.0
2014-Sep-11 09:33N 38°55' E 001°26'0 0.0
2014-Sep-11 05:33N 38°55' E 001°26'0 0.0
2014-Sep-11 04:27N 38°55' E 001°26'0 0.0
2014-Sep-11 01:29N 38°55' E 001°26'0 0.0
2014-Sep-11 00:05N 38°55' E 001°26'0 0.0
2014-Sep-10 23:33N 38°55' E 001°26'0 0.0
2014-Sep-10 22:27N 38°55' E 001°26'0 0.0
2014-Sep-10 21:22N 38°55' E 001°26'0 0.0
2014-Sep-10 20:33N 38°55' E 001°26'0 0.0
2014-Sep-10 19:17N 38°55' E 001°26'0 0.0
2014-Sep-10 18:25N 38°55' E 001°26'0 0.0
2014-Sep-10 17:33N 38°55' E 001°26'0 0.0
2014-Sep-10 16:23N 38°55' E 001°26'0 0.0
2014-Sep-10 15:26N 38°55' E 001°26'0 0.0
2014-Sep-10 13:33N 38°55' E 001°26'0 0.0
2014-Sep-10 12:28N 38°55' E 001°26'0 0.0
2014-Sep-10 11:33N 38°55' E 001°26'0 0.0
2014-Sep-10 09:04N 38°55' E 001°26'0 0.0
2014-Sep-10 03:15N 38°55' E 001°26'0 0.0
2014-Sep-10 01:31N 38°55' E 001°26'0 0.0
2014-Sep-09 23:08N 38°55' E 001°26'0 0.0
2014-Sep-09 19:30N 38°55' E 001°26'1 0.8
2014-Sep-09 18:11N 38°54' E 001°27'812.2
2014-Sep-09 17:33N 38°46' E 001°25'1 1.0
2014-Sep-09 16:21N 38°45' E 001°26'0 0.0
2014-Sep-09 15:15N 38°45' E 001°26'0 0.0
2014-Sep-09 14:21N 38°45' E 001°26'0 0.0
2014-Sep-09 12:21N 38°45' E 001°26'0 0.0
2014-Sep-09 11:09N 38°45' E 001°26'0 0.1
2014-Sep-09 09:27N 38°45' E 001°25'9 8.0
2014-Sep-09 08:16N 38°55' E 001°26'0 0.0
2014-Sep-09 07:26N 38°55' E 001°26'0 0.0
2014-Sep-09 06:28N 38°55' E 001°26'0 0.0
2014-Sep-09 03:26N 38°55' E 001°26'0 0.0
2014-Sep-08 17:11N 38°55' E 001°26'0 0.0
2014-Sep-08 14:12N 38°55' E 001°26'0 0.0
2014-Sep-08 13:30N 38°55' E 001°26'0 0.0
2014-Sep-08 10:32N 38°55' E 001°26'0 0.0
2014-Sep-08 09:33N 38°55' E 001°26'0 0.0
2014-Sep-08 08:34N 38°55' E 001°26'0 0.0
2014-Sep-08 07:31N 38°55' E 001°26'0 0.0
2014-Sep-08 06:34N 38°55' E 001°26'0 0.0
2014-Sep-08 05:30N 38°55' E 001°26'0 0.0
2014-Sep-08 04:33N 38°55' E 001°26'0 0.0
2014-Sep-08 03:33N 38°55' E 001°26'0 0.0
2014-Sep-08 02:32N 38°55' E 001°26'0 0.0
2014-Sep-08 01:27N 38°55' E 001°26'0 0.0
2014-Sep-08 00:31N 38°55' E 001°26'0 0.0
2014-Sep-07 23:10N 38°55' E 001°26'0 0.0
2014-Sep-07 21:30N 38°55' E 001°26'6 6.8
2014-Sep-07 20:33N 38°48' E 001°25'  
Track history (hours):
 
Tides and Currents Weather Stations Pressure Air Temp Water Temp Dewpoint Dewpoint Depression Visibility Wind Speed Wind Dir Waves Ship Positions

Moonlight II

Last reported at 2014-Sep-17 17:24 UTC. Time now 2014-Sep-18 01:45 UTC.
Position N 38°44' E 009°40'.

Length 82 m; draft 4.1 m.

Type: Ship. MMSI: 215934000.

Date/timePositionNaut miles runAvg speedWind from/ knotsBaromVisibWave heightAir tempDewpointWater temp
2014-Sep-17 17:24N 38°44' E 009°40'1011.8
2014-Sep-17 16:33N 38°47' E 009°28'1212.1
2014-Sep-17 15:33N 38°47' E 009°12'1111.6
2014-Sep-17 14:33N 38°47' E 008°58'2411.6
2014-Sep-17 12:31N 38°48' E 008°27'1611.7
2014-Sep-17 11:10N 38°48' E 008°07'711.7
2014-Sep-17 10:33N 38°48' E 007°58'6212.3
2014-Sep-17 05:33N 38°49' E 006°39'  
2014-Sep-13 11:03N 38°55' E 001°26'0 0.0
2014-Sep-13 06:27N 38°55' E 001°26'0 0.0
2014-Sep-13 05:09N 38°55' E 001°26'0 0.0
2014-Sep-13 04:03N 38°55' E 001°26'0 0.0
2014-Sep-13 02:33N 38°55' E 001°26'0 0.0
2014-Sep-13 01:03N 38°55' E 001°26'0 0.0
2014-Sep-13 00:21N 38°55' E 001°26'0 0.0
2014-Sep-12 21:21N 38°55' E 001°26'0 0.0
2014-Sep-12 20:27N 38°55' E 001°26'0 0.0
2014-Sep-12 19:33N 38°55' E 001°26'6 1.2
2014-Sep-12 14:33N 38°49' E 001°25'4 3.4
2014-Sep-12 13:24N 38°45' E 001°26'0 0.0
2014-Sep-12 12:30N 38°45' E 001°26'2 1.7
2014-Sep-12 11:33N 38°46' E 001°25'8 2.7
2014-Sep-12 08:29N 38°55' E 001°26'0 0.0
2014-Sep-12 06:22N 38°55' E 001°26'0 0.0
2014-Sep-12 00:28N 38°55' E 001°26'0 0.0
2014-Sep-11 23:29N 38°55' E 001°26'0 0.0
2014-Sep-11 22:33N 38°55' E 001°26'0 0.0
2014-Sep-11 21:32N 38°55' E 001°26'0 0.0
2014-Sep-11 20:30N 38°55' E 001°26'0 0.0
2014-Sep-11 19:27N 38°55' E 001°26'0 0.0
2014-Sep-11 18:30N 38°55' E 001°26'0 0.0
2014-Sep-11 17:31N 38°55' E 001°26'0 0.0
2014-Sep-11 14:12N 38°55' E 001°26'0 0.0
2014-Sep-11 11:06N 38°55' E 001°26'0 0.0
2014-Sep-11 10:26N 38°55' E 001°26'0 0.0
2014-Sep-11 09:33N 38°55' E 001°26'0 0.0
2014-Sep-11 05:33N 38°55' E 001°26'0 0.0
2014-Sep-11 04:27N 38°55' E 001°26'0 0.0
2014-Sep-11 01:29N 38°55' E 001°26'0 0.0
2014-Sep-11 00:05N 38°55' E 001°26'0 0.0
2014-Sep-10 23:33N 38°55' E 001°26'0 0.0
2014-Sep-10 22:27N 38°55' E 001°26'0 0.0
2014-Sep-10 21:22N 38°55' E 001°26'0 0.0
2014-Sep-10 20:33N 38°55' E 001°26'0 0.0
2014-Sep-10 19:17N 38°55' E 001°26'0 0.0
2014-Sep-10 18:25N 38°55' E 001°26'0 0.0
2014-Sep-10 17:33N 38°55' E 001°26'0 0.0
2014-Sep-10 16:23N 38°55' E 001°26'0 0.0
2014-Sep-10 15:26N 38°55' E 001°26'0 0.0
2014-Sep-10 13:33N 38°55' E 001°26'0 0.0
2014-Sep-10 12:28N 38°55' E 001°26'0 0.0
2014-Sep-10 11:33N 38°55' E 001°26'0 0.0
2014-Sep-10 09:04N 38°55' E 001°26'0 0.0
2014-Sep-10 03:15N 38°55' E 001°26'0 0.0
2014-Sep-10 01:31N 38°55' E 001°26'0 0.0
2014-Sep-09 23:08N 38°55' E 001°26'0 0.0
2014-Sep-09 19:30N 38°55' E 001°26'1 0.8
2014-Sep-09 18:11N 38°54' E 001°27'812.2
2014-Sep-09 17:33N 38°46' E 001°25'1 1.0
2014-Sep-09 16:21N 38°45' E 001°26'0 0.0
2014-Sep-09 15:15N 38°45' E 001°26'0 0.0
2014-Sep-09 14:21N 38°45' E 001°26'0 0.0
2014-Sep-09 12:21N 38°45' E 001°26'0 0.0
2014-Sep-09 11:09N 38°45' E 001°26'0 0.1
2014-Sep-09 09:27N 38°45' E 001°25'9 8.0
2014-Sep-09 08:16N 38°55' E 001°26'0 0.0
2014-Sep-09 07:26N 38°55' E 001°26'0 0.0
2014-Sep-09 06:28N 38°55' E 001°26'0 0.0
2014-Sep-09 03:26N 38°55' E 001°26'0 0.0
2014-Sep-08 17:11N 38°55' E 001°26'0 0.0
2014-Sep-08 14:12N 38°55' E 001°26'0 0.0
2014-Sep-08 13:30N 38°55' E 001°26'0 0.0
2014-Sep-08 10:32N 38°55' E 001°26'0 0.0
2014-Sep-08 09:33N 38°55' E 001°26'0 0.0
2014-Sep-08 08:34N 38°55' E 001°26'0 0.0
2014-Sep-08 07:31N 38°55' E 001°26'0 0.0
2014-Sep-08 06:34N 38°55' E 001°26'0 0.0
2014-Sep-08 05:30N 38°55' E 001°26'0 0.0
2014-Sep-08 04:33N 38°55' E 001°26'0 0.0
2014-Sep-08 03:33N 38°55' E 001°26'0 0.0
2014-Sep-08 02:32N 38°55' E 001°26'0 0.0
2014-Sep-08 01:27N 38°55' E 001°26'0 0.0
2014-Sep-08 00:31N 38°55' E 001°26'0 0.0
2014-Sep-07 23:10N 38°55' E 001°26'0 0.0
2014-Sep-07 21:30N 38°55' E 001°26'6 6.8
2014-Sep-07 20:33N 38°48' E 001°25'  

Dump ship's entire track history